createdAt,value
2022-12-15T00:02:18.298Z,-4.80
2022-12-15T00:05:03.744Z,-4.80
2022-12-15T00:07:49.227Z,-4.80
2022-12-15T00:10:34.674Z,-4.70
2022-12-15T00:13:20.060Z,-4.70
2022-12-15T00:16:06.658Z,-4.70
2022-12-15T00:18:52.647Z,-4.70
2022-12-15T00:21:37.958Z,-4.70
2022-12-15T00:24:23.667Z,-4.70
2022-12-15T00:27:09.035Z,-4.80
2022-12-15T00:29:54.732Z,-4.80
2022-12-15T00:32:41.307Z,-4.80
2022-12-15T00:35:26.655Z,-4.80
2022-12-15T00:38:12.089Z,-4.80
2022-12-15T00:40:38.850Z,-4.80
2022-12-15T00:43:05.652Z,-4.80
2022-12-15T00:45:50.983Z,-4.90
2022-12-15T00:48:17.700Z,-4.90
2022-12-15T00:50:53.694Z,-4.90
2022-12-15T00:53:40.398Z,-4.90
2022-12-15T00:56:26.472Z,-4.90
2022-12-15T00:59:12.116Z,-4.90
2022-12-15T01:01:57.775Z,-4.90
2022-12-15T01:04:43.414Z,-4.70
2022-12-15T01:07:28.951Z,-4.70
2022-12-15T01:10:14.205Z,-4.60
2022-12-15T01:12:59.615Z,-4.60
2022-12-15T01:15:45.203Z,-4.60
2022-12-15T01:18:30.918Z,-4.60
2022-12-15T01:21:03.640Z,-4.50
2022-12-15T01:23:31.993Z,-4.50
2022-12-15T01:25:59.025Z,-4.40
2022-12-15T01:28:25.752Z,-4.30
2022-12-15T01:30:52.701Z,-4.30
2022-12-15T01:33:20.448Z,-4.40
2022-12-15T01:35:58.201Z,-4.40
2022-12-15T01:38:26.613Z,-4.50
2022-12-15T01:41:01.914Z,-4.50
2022-12-15T01:43:35.037Z,-4.50
2022-12-15T01:46:06.890Z,-4.50
2022-12-15T01:49:11.164Z,-4.50
2022-12-15T01:51:40.055Z,-4.50
2022-12-15T01:54:21.829Z,-4.60
2022-12-15T01:56:55.014Z,-4.60
2022-12-15T01:59:27.165Z,-4.60
2022-12-15T02:01:54.031Z,-4.70
2022-12-15T02:04:22.854Z,-4.70
2022-12-15T02:06:50.686Z,-4.70
2022-12-15T02:09:18.702Z,-4.70
2022-12-15T02:12:08.797Z,-4.70
2022-12-15T02:14:44.752Z,-4.60
2022-12-15T02:17:11.404Z,-4.70
2022-12-15T02:19:40.839Z,-4.70
2022-12-15T02:22:22.520Z,-4.70
2022-12-15T02:24:49.638Z,-4.70
2022-12-15T02:27:34.316Z,-4.70
2022-12-15T02:30:19.091Z,-4.70
2022-12-15T02:33:13.784Z,-4.70
2022-12-15T02:36:14.275Z,-4.60
2022-12-15T02:38:45.007Z,-4.60
2022-12-15T02:41:38.026Z,-4.60
2022-12-15T02:44:17.152Z,-4.60
2022-12-15T02:46:46.840Z,-4.70
2022-12-15T02:49:44.978Z,-4.70
2022-12-15T02:52:41.561Z,-4.80
2022-12-15T02:55:33.084Z,-4.80
2022-12-15T02:58:10.324Z,-4.70
2022-12-15T03:00:46.585Z,-4.60
2022-12-15T03:03:20.201Z,-4.50
2022-12-15T03:05:55.055Z,-4.60
2022-12-15T03:08:22.301Z,-4.60
2022-12-15T03:10:52.720Z,-4.60
2022-12-15T03:13:19.606Z,-4.60
2022-12-15T03:15:46.538Z,-4.70
2022-12-15T03:18:13.228Z,-4.70
2022-12-15T03:20:39.949Z,-4.70
2022-12-15T03:23:07.091Z,-4.60
2022-12-15T03:25:33.877Z,-4.50
2022-12-15T03:28:00.760Z,-4.40
2022-12-15T03:30:27.460Z,-4.40
2022-12-15T03:32:54.219Z,-4.50
2022-12-15T03:35:20.940Z,-4.50
2022-12-15T03:37:47.849Z,-4.50
2022-12-15T03:40:16.661Z,-4.50
2022-12-15T03:42:49.250Z,-4.50
2022-12-15T03:45:21.655Z,-4.40
2022-12-15T03:47:49.259Z,-4.30
2022-12-15T03:50:20.343Z,-4.30
2022-12-15T03:52:55.056Z,-4.40
2022-12-15T03:55:23.059Z,-4.30
2022-12-15T03:57:50.963Z,-4.40
2022-12-15T04:00:19.732Z,-4.40
2022-12-15T04:02:47.722Z,-4.50
2022-12-15T04:05:28.688Z,-4.50
2022-12-15T04:07:57.240Z,-4.50
2022-12-15T04:10:31.726Z,-4.60
2022-12-15T04:13:10.301Z,-4.60
2022-12-15T04:15:39.156Z,-4.60
2022-12-15T04:18:07.783Z,-4.50
2022-12-15T04:20:34.533Z,-4.50
2022-12-15T04:23:01.370Z,-4.40
2022-12-15T04:25:47.148Z,-4.40
2022-12-15T04:28:32.551Z,-4.40
2022-12-15T04:31:27.854Z,-4.50
2022-12-15T04:34:17.603Z,-4.50
2022-12-15T04:37:05.691Z,-4.60
2022-12-15T04:39:52.622Z,-4.60
2022-12-15T04:42:38.452Z,-4.60
2022-12-15T04:45:25.131Z,-4.60
2022-12-15T04:48:10.607Z,-4.50
2022-12-15T04:50:56.050Z,-4.50
2022-12-15T04:53:41.198Z,-4.40
2022-12-15T04:56:33.933Z,-4.30
2022-12-15T04:59:19.730Z,-4.30
2022-12-15T05:02:05.419Z,-4.10
2022-12-15T05:04:51.221Z,-4.00
2022-12-15T05:07:37.015Z,-3.80
2022-12-15T05:10:23.459Z,-3.70
2022-12-15T05:13:08.993Z,-3.70
2022-12-15T05:15:54.496Z,-3.70
2022-12-15T05:18:39.772Z,-3.70
2022-12-15T05:21:25.596Z,-3.80
2022-12-15T05:24:11.136Z,-3.80
2022-12-15T05:26:56.648Z,-3.90
2022-12-15T05:29:41.974Z,-3.90
2022-12-15T05:32:08.759Z,-4.00
2022-12-15T05:34:36.960Z,-4.00
2022-12-15T05:37:05.593Z,-4.10
2022-12-15T05:39:32.630Z,-4.10
2022-12-15T05:41:59.696Z,-4.10
2022-12-15T05:44:26.832Z,-4.10
2022-12-15T05:46:53.788Z,-4.10
2022-12-15T05:49:20.648Z,-4.20
2022-12-15T05:51:48.325Z,-4.20
2022-12-15T05:54:18.291Z,-4.30
2022-12-15T05:56:45.726Z,-4.40
2022-12-15T05:59:13.605Z,-4.40
2022-12-15T06:01:40.521Z,-4.50
2022-12-15T06:04:07.610Z,-4.50
2022-12-15T06:06:34.468Z,-4.50
2022-12-15T06:09:01.206Z,-4.50
2022-12-15T06:11:28.019Z,-4.50
2022-12-15T06:13:55.959Z,-4.50
2022-12-15T06:16:24.563Z,-4.50
2022-12-15T06:18:55.436Z,-4.40
2022-12-15T06:21:25.213Z,-4.40
2022-12-15T06:23:52.994Z,-4.50
2022-12-15T06:26:39.838Z,-4.40
2022-12-15T06:29:09.102Z,-4.40
2022-12-15T06:31:37.091Z,-4.40
2022-12-15T06:34:06.085Z,-4.40
2022-12-15T06:36:33.090Z,-4.40
2022-12-15T06:39:01.627Z,-4.40
2022-12-15T06:41:31.976Z,-4.40
2022-12-15T06:44:00.398Z,-4.40
2022-12-15T06:46:29.257Z,-4.40
2022-12-15T06:48:56.487Z,-4.40
2022-12-15T06:51:23.471Z,-4.40
2022-12-15T06:53:53.940Z,-4.40
2022-12-15T06:56:33.976Z,-4.50
2022-12-15T06:59:03.231Z,-4.40
2022-12-15T07:01:31.084Z,-4.40
2022-12-15T07:04:00.307Z,-4.40
2022-12-15T07:06:28.264Z,-4.30
2022-12-15T07:08:56.746Z,-4.20
2022-12-15T07:11:24.080Z,-4.20
2022-12-15T07:13:52.846Z,-4.30
2022-12-15T07:16:21.304Z,-4.30
2022-12-15T07:18:48.039Z,-4.40
2022-12-15T07:21:15.073Z,-4.40
2022-12-15T07:23:58.064Z,-4.40
2022-12-15T07:26:26.061Z,-4.40
2022-12-15T07:28:53.764Z,-4.40
2022-12-15T07:31:21.506Z,-4.40
2022-12-15T07:33:48.750Z,-4.40
2022-12-15T07:36:15.975Z,-4.40
2022-12-15T07:38:42.871Z,-4.40
2022-12-15T07:41:10.294Z,-4.40
2022-12-15T07:43:37.832Z,-4.40
2022-12-15T07:46:05.853Z,-4.40
2022-12-15T07:48:33.014Z,-4.30
2022-12-15T07:51:09.753Z,-4.20
2022-12-15T07:53:40.068Z,-4.20
2022-12-15T07:56:09.332Z,-4.10
2022-12-15T07:58:37.677Z,-4.10
2022-12-15T08:01:06.978Z,-4.10
2022-12-15T08:03:35.738Z,-4.10
2022-12-15T08:06:11.645Z,-4.00
2022-12-15T08:08:38.795Z,-4.10
2022-12-15T08:11:11.076Z,-4.10
2022-12-15T08:16:26.561Z,-4.10
2022-12-15T08:18:53.752Z,-4.10
2022-12-15T08:21:20.539Z,-4.00
2022-12-15T08:23:47.806Z,-4.00
2022-12-15T08:26:17.618Z,-3.90
2022-12-15T08:28:45.785Z,-3.80
2022-12-15T08:31:18.543Z,-3.70
2022-12-15T08:33:46.297Z,-3.60
2022-12-15T08:36:15.489Z,-3.50
2022-12-15T08:38:44.234Z,-3.50
2022-12-15T08:41:19.957Z,-3.40
2022-12-15T08:43:49.167Z,-3.30
2022-12-15T08:46:17.964Z,-3.20
2022-12-15T08:48:44.974Z,-3.10
2022-12-15T08:51:12.574Z,-3.00
2022-12-15T08:53:39.310Z,-3.00
2022-12-15T08:56:08.643Z,-2.90
2022-12-15T08:58:35.808Z,-2.80
2022-12-15T09:01:07.911Z,-2.70
2022-12-15T09:03:36.231Z,-2.60
2022-12-15T09:06:08.828Z,-2.50
2022-12-15T09:08:35.991Z,-2.40
2022-12-15T09:11:05.476Z,-2.30
2022-12-15T09:13:33.164Z,-2.20
2022-12-15T09:16:13.250Z,-2.00
2022-12-15T09:18:42.857Z,-1.90
2022-12-15T09:21:14.871Z,-1.70
2022-12-15T09:23:42.548Z,-1.60
2022-12-15T09:26:14.368Z,-1.50
2022-12-15T09:28:41.581Z,-1.30
2022-12-15T09:31:22.736Z,-1.10
2022-12-15T09:33:53.844Z,-0.90
2022-12-15T09:36:21.027Z,-0.60
2022-12-15T09:38:47.781Z,-0.30
2022-12-15T09:41:14.994Z,-0.10
2022-12-15T09:44:13.396Z,0.10
2022-12-15T09:47:01.292Z,0.30
2022-12-15T09:49:57.225Z,0.40
2022-12-15T09:52:30.324Z,0.40
2022-12-15T09:54:58.438Z,0.40
2022-12-15T09:57:44.700Z,0.40
2022-12-15T10:00:21.774Z,0.30
2022-12-15T10:03:19.531Z,0.30
2022-12-15T10:06:27.112Z,0.20
2022-12-15T10:08:57.139Z,0.20
2022-12-15T10:11:41.635Z,0.20
2022-12-15T10:14:20.350Z,0.30
2022-12-15T10:16:52.808Z,0.40
2022-12-15T10:19:22.509Z,0.40
2022-12-15T10:21:50.442Z,0.50
2022-12-15T10:24:44.589Z,0.60
2022-12-15T10:27:25.080Z,0.70
2022-12-15T10:30:02.334Z,0.90
2022-12-15T10:33:06.665Z,1.10
2022-12-15T10:35:35.947Z,1.30
2022-12-15T10:38:06.158Z,1.60
2022-12-15T10:40:41.909Z,1.80
2022-12-15T10:43:37.171Z,2.00
2022-12-15T10:46:27.937Z,2.20
2022-12-15T10:49:23.743Z,2.20
2022-12-15T10:51:57.311Z,2.10
2022-12-15T10:54:27.281Z,2.10
2022-12-15T10:56:59.607Z,2.00
2022-12-15T10:59:36.328Z,2.00
2022-12-15T11:02:24.672Z,1.90
2022-12-15T11:05:17.866Z,1.90
2022-12-15T11:08:17.097Z,1.90
2022-12-15T11:11:15.567Z,2.00
2022-12-15T11:13:43.814Z,2.10
2022-12-15T11:16:20.133Z,2.30
2022-12-15T11:19:08.041Z,2.40
2022-12-15T11:21:44.945Z,2.40
2022-12-15T11:24:19.454Z,2.30
2022-12-15T11:26:56.203Z,2.30
2022-12-15T11:29:44.626Z,2.20
2022-12-15T11:32:12.967Z,2.20
2022-12-15T11:34:44.582Z,2.20
2022-12-15T11:37:40.328Z,2.30
2022-12-15T11:40:18.924Z,2.30
2022-12-15T11:43:20.911Z,2.30
2022-12-15T11:46:03.131Z,2.20
2022-12-15T11:49:01.708Z,2.20
2022-12-15T11:51:42.955Z,2.30
2022-12-15T11:54:15.654Z,2.40
2022-12-15T11:56:50.652Z,2.40
2022-12-15T11:59:35.643Z,2.50
2022-12-15T12:02:24.945Z,2.60
2022-12-15T12:05:23.910Z,2.70
2022-12-15T12:07:56.801Z,2.80
2022-12-15T12:10:33.606Z,2.90
2022-12-15T12:13:21.962Z,2.90
2022-12-15T12:16:01.626Z,3.00
2022-12-15T12:18:37.604Z,3.00
2022-12-15T12:21:30.373Z,3.00
2022-12-15T12:24:18.128Z,3.00
2022-12-15T12:27:09.006Z,3.10
2022-12-15T12:29:40.706Z,3.10
2022-12-15T12:32:15.901Z,3.20
2022-12-15T12:35:32.042Z,3.30
2022-12-15T12:38:04.879Z,3.50
2022-12-15T12:41:04.377Z,3.60
2022-12-15T12:43:38.335Z,3.50
2022-12-15T12:46:05.012Z,3.50
2022-12-15T12:48:38.289Z,3.50
2022-12-15T12:51:11.299Z,3.40
2022-12-15T12:53:38.012Z,3.40
2022-12-15T12:56:05.116Z,3.40
2022-12-15T12:58:45.383Z,3.40
2022-12-15T13:01:25.218Z,3.30
2022-12-15T13:04:34.071Z,3.30
2022-12-15T13:07:25.262Z,3.30
2022-12-15T13:10:13.689Z,3.30
2022-12-15T13:12:52.843Z,3.30
2022-12-15T13:15:43.922Z,3.30
2022-12-15T13:18:18.905Z,3.30
2022-12-15T13:20:50.564Z,3.20
2022-12-15T13:23:23.717Z,3.20
2022-12-15T13:25:56.606Z,3.20
2022-12-15T13:28:36.330Z,3.20
2022-12-15T13:31:21.689Z,3.20
2022-12-15T13:33:52.467Z,3.20
2022-12-15T13:36:39.646Z,3.20
2022-12-15T13:39:12.616Z,3.20
2022-12-15T13:42:00.600Z,3.10
2022-12-15T13:45:03.966Z,3.10
2022-12-15T13:47:31.277Z,3.10
2022-12-15T13:50:02.941Z,3.10
2022-12-15T13:53:16.521Z,3.10
2022-12-15T13:55:27.998Z,3.00
2022-12-15T13:58:00.275Z,3.00
2022-12-15T14:00:27.007Z,3.00
2022-12-15T14:03:12.184Z,3.00
2022-12-15T14:05:43.084Z,3.00
2022-12-15T14:08:15.878Z,2.90
2022-12-15T14:10:54.631Z,2.90
2022-12-15T14:13:24.029Z,2.80
2022-12-15T14:16:07.247Z,2.80
2022-12-15T14:18:36.941Z,2.80
2022-12-15T14:21:20.409Z,2.70
2022-12-15T14:26:35.295Z,2.60
2022-12-15T14:29:06.826Z,2.50
2022-12-15T14:31:36.805Z,2.50
2022-12-15T14:34:12.744Z,2.50
2022-12-15T14:36:42.047Z,2.40
2022-12-15T14:39:34.774Z,2.30
2022-12-15T14:42:02.191Z,2.30
2022-12-15T14:44:38.153Z,2.20
2022-12-15T14:47:15.981Z,2.10
2022-12-15T14:49:45.523Z,2.10
2022-12-15T14:52:32.958Z,2.00
2022-12-15T14:55:16.970Z,1.90
2022-12-15T14:57:45.511Z,1.80
2022-12-15T15:00:27.127Z,1.70
2022-12-15T15:03:18.856Z,1.60
2022-12-15T15:05:57.943Z,1.50
2022-12-15T15:08:37.019Z,1.50
2022-12-15T15:11:30.000Z,1.40
2022-12-15T15:14:13.218Z,1.40
2022-12-15T15:16:40.444Z,1.30
2022-12-15T15:19:07.815Z,1.20
2022-12-15T15:21:39.032Z,1.20
2022-12-15T15:24:11.854Z,1.10
2022-12-15T15:26:40.045Z,1.00
2022-12-15T15:29:38.210Z,0.90
2022-12-15T15:32:16.485Z,0.80
2022-12-15T15:34:45.005Z,0.70
2022-12-15T15:37:20.723Z,0.60
2022-12-15T15:39:52.579Z,0.50
2022-12-15T15:42:19.696Z,0.50
2022-12-15T15:44:46.504Z,0.40
2022-12-15T15:47:24.933Z,0.40
2022-12-15T15:49:53.458Z,0.30
2022-12-15T15:52:20.261Z,0.20
2022-12-15T15:54:47.418Z,0.10
2022-12-15T15:57:18.403Z,0.10
2022-12-15T15:59:46.645Z,0.10
2022-12-15T16:02:15.079Z,0.00
2022-12-15T16:04:43.356Z,0.00
2022-12-15T16:07:29.582Z,-0.10
2022-12-15T16:09:57.506Z,-0.20
2022-12-15T16:12:50.085Z,-0.20
2022-12-15T16:15:21.658Z,-0.30
2022-12-15T16:17:48.708Z,-0.30
2022-12-15T16:20:17.974Z,-0.40
2022-12-15T16:22:47.589Z,-0.50
2022-12-15T16:25:43.759Z,-0.50
2022-12-15T16:28:18.926Z,-0.60
2022-12-15T16:30:45.781Z,-0.60
2022-12-15T16:33:13.135Z,-0.70
2022-12-15T16:35:41.905Z,-0.70
2022-12-15T16:38:26.170Z,-0.70
2022-12-15T16:40:53.338Z,-0.70
2022-12-15T16:43:24.464Z,-0.80
2022-12-15T16:45:54.032Z,-0.90
2022-12-15T16:48:21.373Z,-0.90
2022-12-15T16:50:58.212Z,-0.90
2022-12-15T16:53:30.595Z,-0.90
2022-12-15T16:55:59.144Z,-1.00
2022-12-15T16:58:27.541Z,-0.90
2022-12-15T17:00:54.536Z,-1.00
2022-12-15T17:03:28.907Z,-1.00
2022-12-15T17:05:58.807Z,-1.00
2022-12-15T17:08:46.595Z,-1.00
2022-12-15T17:11:25.126Z,-1.00
2022-12-15T17:13:55.224Z,-1.00
2022-12-15T17:16:24.398Z,-1.00
2022-12-15T17:18:52.023Z,-1.10
2022-12-15T17:21:29.021Z,-1.10
2022-12-15T17:23:59.019Z,-1.10
2022-12-15T17:26:30.557Z,-1.00
2022-12-15T17:29:18.748Z,-1.00
2022-12-15T17:31:45.617Z,-1.00
2022-12-15T17:34:32.876Z,-1.00
2022-12-15T17:37:04.807Z,-1.00
2022-12-15T17:39:34.792Z,-1.00
2022-12-15T17:42:02.913Z,-1.00
2022-12-15T17:44:36.331Z,-1.00
2022-12-15T17:47:06.796Z,-0.90
2022-12-15T17:49:37.672Z,-1.00
2022-12-15T17:52:19.040Z,-1.00
2022-12-15T17:54:45.856Z,-1.00
2022-12-15T17:57:12.935Z,-1.00
2022-12-15T17:59:39.792Z,-1.00
2022-12-15T18:02:08.405Z,-0.90
2022-12-15T18:04:35.308Z,-0.90
2022-12-15T18:07:02.820Z,-0.90
2022-12-15T18:09:30.886Z,-0.80
2022-12-15T18:11:58.000Z,-0.70
2022-12-15T18:14:24.861Z,-0.70
2022-12-15T18:16:51.819Z,-0.60
2022-12-15T18:19:18.610Z,-0.50
2022-12-15T18:21:45.331Z,-0.40
2022-12-15T18:24:17.303Z,-0.40
2022-12-15T18:26:44.399Z,-0.40
2022-12-15T18:29:17.834Z,-0.30
2022-12-15T18:31:58.564Z,-0.40
2022-12-15T18:34:25.404Z,-0.50
2022-12-15T18:36:52.079Z,-0.50
2022-12-15T18:39:23.488Z,-0.60
2022-12-15T18:41:51.466Z,-0.60
2022-12-15T18:44:24.262Z,-0.60
2022-12-15T18:46:51.975Z,-0.70
2022-12-15T18:49:19.396Z,-0.70
2022-12-15T18:51:47.410Z,-0.80
2022-12-15T18:54:20.846Z,-0.80
2022-12-15T18:56:48.069Z,-0.80
2022-12-15T18:59:16.839Z,-0.90
2022-12-15T19:01:45.638Z,-0.90
2022-12-15T19:04:13.644Z,-0.90
2022-12-15T19:06:41.008Z,-0.90
2022-12-15T19:09:19.128Z,-0.90
2022-12-15T19:12:17.555Z,-0.90
2022-12-15T19:14:50.434Z,-0.90
2022-12-15T19:17:38.083Z,-1.00
2022-12-15T19:20:43.441Z,-1.00
2022-12-15T19:23:11.818Z,-1.00
2022-12-15T19:25:39.819Z,-1.00
2022-12-15T19:28:12.468Z,-1.00
2022-12-15T19:30:42.227Z,-1.00
2022-12-15T19:33:10.635Z,-1.10
2022-12-15T19:35:38.494Z,-1.10
2022-12-15T19:38:05.511Z,-1.10
2022-12-15T19:40:34.417Z,-1.10
2022-12-15T19:43:02.404Z,-1.20
2022-12-15T19:45:31.413Z,-1.20
2022-12-15T19:47:59.253Z,-1.20
2022-12-15T19:50:30.362Z,-1.20
2022-12-15T19:53:00.460Z,-1.10
2022-12-15T19:55:33.895Z,-1.10
2022-12-15T19:58:05.535Z,-1.00
2022-12-15T20:00:32.197Z,-0.90
2022-12-15T20:02:59.004Z,-0.80
2022-12-15T20:05:26.034Z,-0.70
2022-12-15T20:07:54.672Z,-0.60
2022-12-15T20:10:29.332Z,-0.50
2022-12-15T20:12:59.560Z,-0.40
2022-12-15T20:15:26.539Z,-0.30
2022-12-15T20:17:57.218Z,-0.30
2022-12-15T20:20:27.066Z,-0.20
2022-12-15T20:22:56.487Z,-0.10
2022-12-15T20:25:27.496Z,0.00
2022-12-15T20:27:54.431Z,0.10
2022-12-15T20:30:32.707Z,0.20
2022-12-15T20:33:00.901Z,0.20
2022-12-15T20:35:28.489Z,0.30
2022-12-15T20:37:55.224Z,0.40
2022-12-15T20:40:25.703Z,0.40
2022-12-15T20:42:53.881Z,0.50
2022-12-15T20:45:26.360Z,0.50
2022-12-15T20:47:54.831Z,0.60
2022-12-15T20:50:34.918Z,0.60
2022-12-15T20:53:02.126Z,0.70
2022-12-15T20:55:29.704Z,0.70
2022-12-15T20:57:56.416Z,0.80
2022-12-15T21:00:23.285Z,0.80
2022-12-15T21:02:50.189Z,0.80
2022-12-15T21:05:22.326Z,0.90
2022-12-15T21:07:49.370Z,0.90
2022-12-15T21:10:18.179Z,1.00
2022-12-15T21:12:47.024Z,1.00
2022-12-15T21:15:14.993Z,1.00
2022-12-15T21:17:42.775Z,1.10
2022-12-15T21:20:10.571Z,1.10
2022-12-15T21:22:37.379Z,1.10
2022-12-15T21:25:04.579Z,1.10
2022-12-15T21:27:31.257Z,1.10
2022-12-15T21:29:57.972Z,1.10
2022-12-15T21:32:24.715Z,1.10
2022-12-15T21:34:51.814Z,1.10
2022-12-15T21:37:26.905Z,1.10
2022-12-15T21:39:54.539Z,1.10
2022-12-15T21:42:21.815Z,1.10
2022-12-15T21:44:48.530Z,1.00
2022-12-15T21:47:49.766Z,1.00
2022-12-15T21:50:19.123Z,0.90
2022-12-15T21:52:46.684Z,0.80
2022-12-15T21:55:17.615Z,0.80
2022-12-15T21:57:45.194Z,0.90
2022-12-15T22:00:14.248Z,0.90
2022-12-15T22:02:41.632Z,0.90
2022-12-15T22:05:23.910Z,0.90
2022-12-15T22:07:51.195Z,1.00
2022-12-15T22:10:18.448Z,1.00
2022-12-15T22:12:53.420Z,1.10
2022-12-15T22:15:26.211Z,1.10
2022-12-15T22:17:53.092Z,1.10
2022-12-15T22:20:22.600Z,1.10
2022-12-15T22:22:50.121Z,1.10
2022-12-15T22:25:25.084Z,1.00
2022-12-15T22:27:52.562Z,1.00
2022-12-15T22:30:24.499Z,1.00
2022-12-15T22:32:51.534Z,1.00
2022-12-15T22:35:20.999Z,1.00
2022-12-15T22:37:49.556Z,0.90
2022-12-15T22:40:17.494Z,0.80
2022-12-15T22:42:49.157Z,0.70
2022-12-15T22:45:19.108Z,0.60
2022-12-15T22:47:49.993Z,0.50
2022-12-15T22:50:28.067Z,0.50
2022-12-15T22:52:54.949Z,0.40
2022-12-15T22:55:23.118Z,0.30
2022-12-15T22:58:03.155Z,0.20
2022-12-15T23:00:29.953Z,0.20
2022-12-15T23:05:30.347Z,0.20
2022-12-15T23:07:58.542Z,0.20
2022-12-15T23:10:43.811Z,0.20
2022-12-15T23:13:10.523Z,0.10
2022-12-15T23:15:55.848Z,0.10
2022-12-15T23:18:22.575Z,0.10
2022-12-15T23:20:51.499Z,0.10
2022-12-15T23:23:18.338Z,0.10
2022-12-15T23:25:46.748Z,0.10
2022-12-15T23:28:14.227Z,0.10
2022-12-15T23:30:41.003Z,0.00
2022-12-15T23:33:07.698Z,0.00
2022-12-15T23:35:34.488Z,0.00
2022-12-15T23:38:01.151Z,0.00
2022-12-15T23:40:27.823Z,0.00
2022-12-15T23:42:54.516Z,0.00
2022-12-15T23:45:22.344Z,0.00
2022-12-15T23:47:49.168Z,0.00
2022-12-15T23:50:16.258Z,0.00
2022-12-15T23:52:43.056Z,0.00
2022-12-15T23:55:10.279Z,0.10
2022-12-15T23:57:38.043Z,0.00
